sensor_id;sensor_type;location;lat;lon;timestamp;temperature;humidity
21811;DHT22;11067;48.788;9.208;2023-08-21T00:00:59;24.80;99.90
21811;DHT22;11067;48.788;9.208;2023-08-21T00:03:25;24.70;99.90
21811;DHT22;11067;48.788;9.208;2023-08-21T00:05:50;24.70;99.90
21811;DHT22;11067;48.788;9.208;2023-08-21T00:08:16;24.70;99.90
21811;DHT22;11067;48.788;9.208;2023-08-21T00:10:41;24.50;99.90
21811;DHT22;11067;48.788;9.208;2023-08-21T00:13:07;24.50;99.90
21811;DHT22;11067;48.788;9.208;2023-08-21T00:15:33;24.50;99.90
21811;DHT22;11067;48.788;9.208;2023-08-21T00:17:58;24.50;99.90
21811;DHT22;11067;48.788;9.208;2023-08-21T00:20:25;24.50;99.90
21811;DHT22;11067;48.788;9.208;2023-08-21T00:22:51;24.40;99.90
21811;DHT22;11067;48.788;9.208;2023-08-21T00:25:16;24.40;99.90
21811;DHT22;11067;48.788;9.208;2023-08-21T00:27:42;24.40;99.90
21811;DHT22;11067;48.788;9.208;2023-08-21T00:30:08;24.30;99.90
21811;DHT22;11067;48.788;9.208;2023-08-21T00:32:34;24.40;99.90
21811;DHT22;11067;48.788;9.208;2023-08-21T00:35:00;24.30;99.90
21811;DHT22;11067;48.788;9.208;2023-08-21T00:37:26;24.30;99.90
21811;DHT22;11067;48.788;9.208;2023-08-21T00:39:51;24.30;99.90
21811;DHT22;11067;48.788;9.208;2023-08-21T00:42:17;24.30;99.90
21811;DHT22;11067;48.788;9.208;2023-08-21T00:44:42;24.40;99.90
21811;DHT22;11067;48.788;9.208;2023-08-21T00:47:08;24.30;99.90
21811;DHT22;11067;48.788;9.208;2023-08-21T00:49:33;24.20;99.90
21811;DHT22;11067;48.788;9.208;2023-08-21T00:51:59;24.20;99.90
21811;DHT22;11067;48.788;9.208;2023-08-21T00:54:25;24.20;99.90
21811;DHT22;11067;48.788;9.208;2023-08-21T00:56:51;24.20;99.90
21811;DHT22;11067;48.788;9.208;2023-08-21T00:59:18;24.10;99.90
21811;DHT22;11067;48.788;9.208;2023-08-21T01:01:45;24.10;99.90
21811;DHT22;11067;48.788;9.208;2023-08-21T01:04:13;24.10;99.90
21811;DHT22;11067;48.788;9.208;2023-08-21T01:06:39;24.00;99.90
21811;DHT22;11067;48.788;9.208;2023-08-21T01:09:12;24.00;99.90
21811;DHT22;11067;48.788;9.208;2023-08-21T01:12:17;24.00;99.90
21811;DHT22;11067;48.788;9.208;2023-08-21T01:17:19;24.00;99.90
21811;DHT22;11067;48.788;9.208;2023-08-21T01:19:48;23.90;99.90
21811;DHT22;11067;48.788;9.208;2023-08-21T01:22:14;23.90;99.90
21811;DHT22;11067;48.788;9.208;2023-08-21T01:24:40;23.90;99.90
21811;DHT22;11067;48.788;9.208;2023-08-21T01:27:06;23.80;99.90
21811;DHT22;11067;48.788;9.208;2023-08-21T01:29:32;23.80;99.90
21811;DHT22;11067;48.788;9.208;2023-08-21T01:34:23;23.70;99.90
21811;DHT22;11067;48.788;9.208;2023-08-21T01:36:50;23.70;99.90
21811;DHT22;11067;48.788;9.208;2023-08-21T01:39:16;23.70;99.90
21811;DHT22;11067;48.788;9.208;2023-08-21T01:41:42;23.60;99.90
21811;DHT22;11067;48.788;9.208;2023-08-21T01:44:07;23.60;99.90
21811;DHT22;11067;48.788;9.208;2023-08-21T01:46:33;23.50;99.90
21811;DHT22;11067;48.788;9.208;2023-08-21T01:48:58;23.50;99.90
21811;DHT22;11067;48.788;9.208;2023-08-21T01:51:24;23.50;99.90
21811;DHT22;11067;48.788;9.208;2023-08-21T01:53:51;23.50;99.90
21811;DHT22;11067;48.788;9.208;2023-08-21T01:56:17;23.50;99.90
21811;DHT22;11067;48.788;9.208;2023-08-21T01:58:42;23.40;99.90
21811;DHT22;11067;48.788;9.208;2023-08-21T02:01:08;23.40;99.90
21811;DHT22;11067;48.788;9.208;2023-08-21T02:03:33;23.30;99.90
21811;DHT22;11067;48.788;9.208;2023-08-21T02:05:59;23.30;99.90
21811;DHT22;11067;48.788;9.208;2023-08-21T02:08:30;23.30;99.90
21811;DHT22;11067;48.788;9.208;2023-08-21T02:10:57;23.20;99.90
21811;DHT22;11067;48.788;9.208;2023-08-21T02:13:22;23.30;99.90
21811;DHT22;11067;48.788;9.208;2023-08-21T02:15:48;23.30;99.90
21811;DHT22;11067;48.788;9.208;2023-08-21T02:18:13;23.30;99.90
21811;DHT22;11067;48.788;9.208;2023-08-21T02:20:39;23.20;99.90
21811;DHT22;11067;48.788;9.208;2023-08-21T02:23:04;23.30;99.90
21811;DHT22;11067;48.788;9.208;2023-08-21T02:25:31;23.20;99.90
21811;DHT22;11067;48.788;9.208;2023-08-21T02:27:56;23.20;99.90
21811;DHT22;11067;48.788;9.208;2023-08-21T02:30:22;23.10;99.90
21811;DHT22;11067;48.788;9.208;2023-08-21T02:32:51;23.10;99.90
21811;DHT22;11067;48.788;9.208;2023-08-21T02:35:17;23.10;99.90
21811;DHT22;11067;48.788;9.208;2023-08-21T02:37:43;23.10;99.90
21811;DHT22;11067;48.788;9.208;2023-08-21T02:40:08;23.10;99.90
21811;DHT22;11067;48.788;9.208;2023-08-21T02:42:34;23.10;99.90
21811;DHT22;11067;48.788;9.208;2023-08-21T02:45:00;23.10;99.90
21811;DHT22;11067;48.788;9.208;2023-08-21T02:47:29;23.00;99.90
21811;DHT22;11067;48.788;9.208;2023-08-21T02:49:54;23.10;99.90
21811;DHT22;11067;48.788;9.208;2023-08-21T02:52:20;23.00;99.90
21811;DHT22;11067;48.788;9.208;2023-08-21T02:54:45;23.00;99.90
21811;DHT22;11067;48.788;9.208;2023-08-21T02:57:11;23.00;99.90
21811;DHT22;11067;48.788;9.208;2023-08-21T02:59:37;23.00;99.90
21811;DHT22;11067;48.788;9.208;2023-08-21T03:02:02;23.00;99.90
21811;DHT22;11067;48.788;9.208;2023-08-21T03:04:28;22.90;99.90
21811;DHT22;11067;48.788;9.208;2023-08-21T03:06:53;22.90;99.90
21811;DHT22;11067;48.788;9.208;2023-08-21T03:09:19;22.90;99.90
21811;DHT22;11067;48.788;9.208;2023-08-21T03:11:44;22.90;99.90
21811;DHT22;11067;48.788;9.208;2023-08-21T03:14:10;22.90;99.90
21811;DHT22;11067;48.788;9.208;2023-08-21T03:16:35;22.90;99.90
21811;DHT22;11067;48.788;9.208;2023-08-21T03:19:01;22.90;99.90
21811;DHT22;11067;48.788;9.208;2023-08-21T03:21:27;22.90;99.90
21811;DHT22;11067;48.788;9.208;2023-08-21T03:23:56;22.80;99.90
21811;DHT22;11067;48.788;9.208;2023-08-21T03:26:22;22.80;99.90
21811;DHT22;11067;48.788;9.208;2023-08-21T03:28:48;22.80;99.90
21811;DHT22;11067;48.788;9.208;2023-08-21T03:31:14;22.90;99.90
21811;DHT22;11067;48.788;9.208;2023-08-21T03:33:39;22.80;99.90
21811;DHT22;11067;48.788;9.208;2023-08-21T03:36:05;22.80;99.90
21811;DHT22;11067;48.788;9.208;2023-08-21T03:38:31;22.80;99.90
21811;DHT22;11067;48.788;9.208;2023-08-21T03:40:56;22.70;99.90
21811;DHT22;11067;48.788;9.208;2023-08-21T03:43:22;22.70;99.90
21811;DHT22;11067;48.788;9.208;2023-08-21T03:45:47;22.60;99.90
21811;DHT22;11067;48.788;9.208;2023-08-21T03:48:13;22.70;99.90
21811;DHT22;11067;48.788;9.208;2023-08-21T03:50:39;22.70;99.90
21811;DHT22;11067;48.788;9.208;2023-08-21T03:53:04;22.60;99.90
21811;DHT22;11067;48.788;9.208;2023-08-21T03:55:30;22.70;99.90
21811;DHT22;11067;48.788;9.208;2023-08-21T03:57:56;22.60;99.90
21811;DHT22;11067;48.788;9.208;2023-08-21T04:00:21;22.50;99.90
21811;DHT22;11067;48.788;9.208;2023-08-21T04:02:47;22.60;99.90
21811;DHT22;11067;48.788;9.208;2023-08-21T04:05:13;22.60;99.90
21811;DHT22;11067;48.788;9.208;2023-08-21T04:07:39;22.50;99.90
21811;DHT22;11067;48.788;9.208;2023-08-21T04:10:05;22.60;99.90
21811;DHT22;11067;48.788;9.208;2023-08-21T04:12:31;22.60;99.90
21811;DHT22;11067;48.788;9.208;2023-08-21T04:14:56;22.60;99.90
21811;DHT22;11067;48.788;9.208;2023-08-21T04:17:22;22.60;99.90
21811;DHT22;11067;48.788;9.208;2023-08-21T04:19:48;22.70;99.90
21811;DHT22;11067;48.788;9.208;2023-08-21T04:22:14;22.60;99.90
21811;DHT22;11067;48.788;9.208;2023-08-21T04:24:41;22.60;99.90
21811;DHT22;11067;48.788;9.208;2023-08-21T04:27:06;22.50;99.90
21811;DHT22;11067;48.788;9.208;2023-08-21T04:29:32;22.60;99.90
21811;DHT22;11067;48.788;9.208;2023-08-21T04:31:57;22.50;99.90
21811;DHT22;11067;48.788;9.208;2023-08-21T04:34:23;22.50;99.90
21811;DHT22;11067;48.788;9.208;2023-08-21T04:36:48;22.50;99.90
21811;DHT22;11067;48.788;9.208;2023-08-21T04:39:14;22.50;99.90
21811;DHT22;11067;48.788;9.208;2023-08-21T04:41:41;22.60;99.90
21811;DHT22;11067;48.788;9.208;2023-08-21T04:44:07;22.50;99.90
21811;DHT22;11067;48.788;9.208;2023-08-21T04:46:32;22.60;99.90
21811;DHT22;11067;48.788;9.208;2023-08-21T04:48:58;22.60;99.90
21811;DHT22;11067;48.788;9.208;2023-08-21T04:51:24;22.60;99.90
21811;DHT22;11067;48.788;9.208;2023-08-21T04:53:50;22.60;99.90
21811;DHT22;11067;48.788;9.208;2023-08-21T04:56:16;22.70;99.90
21811;DHT22;11067;48.788;9.208;2023-08-21T04:58:42;22.60;99.90
21811;DHT22;11067;48.788;9.208;2023-08-21T05:01:07;22.60;99.90
21811;DHT22;11067;48.788;9.208;2023-08-21T05:03:33;22.70;99.90
21811;DHT22;11067;48.788;9.208;2023-08-21T05:05:58;22.80;99.90
21811;DHT22;11067;48.788;9.208;2023-08-21T05:08:25;22.90;99.90
21811;DHT22;11067;48.788;9.208;2023-08-21T05:10:55;23.00;99.90
21811;DHT22;11067;48.788;9.208;2023-08-21T05:13:21;23.10;99.90
21811;DHT22;11067;48.788;9.208;2023-08-21T05:15:51;23.30;99.90
21811;DHT22;11067;48.788;9.208;2023-08-21T05:18:18;23.50;99.90
21811;DHT22;11067;48.788;9.208;2023-08-21T05:20:43;23.50;99.90
21811;DHT22;11067;48.788;9.208;2023-08-21T05:23:09;23.50;99.90
21811;DHT22;11067;48.788;9.208;2023-08-21T05:25:34;23.50;99.90
21811;DHT22;11067;48.788;9.208;2023-08-21T05:28:00;23.80;99.90
21811;DHT22;11067;48.788;9.208;2023-08-21T05:30:25;23.80;99.90
21811;DHT22;11067;48.788;9.208;2023-08-21T05:32:51;23.80;99.90
21811;DHT22;11067;48.788;9.208;2023-08-21T05:35:16;23.90;99.90
21811;DHT22;11067;48.788;9.208;2023-08-21T05:37:42;23.80;99.90
21811;DHT22;11067;48.788;9.208;2023-08-21T05:40:07;24.00;99.90
21811;DHT22;11067;48.788;9.208;2023-08-21T05:42:34;24.20;99.90
21811;DHT22;11067;48.788;9.208;2023-08-21T05:44:59;24.50;99.90
21811;DHT22;11067;48.788;9.208;2023-08-21T05:47:25;24.70;99.90
21811;DHT22;11067;48.788;9.208;2023-08-21T05:49:52;24.70;99.90
21811;DHT22;11067;48.788;9.208;2023-08-21T05:52:18;24.70;99.90
21811;DHT22;11067;48.788;9.208;2023-08-21T05:54:44;25.10;99.90
21811;DHT22;11067;48.788;9.208;2023-08-21T05:57:09;25.30;99.90
21811;DHT22;11067;48.788;9.208;2023-08-21T05:59:35;25.50;99.90
21811;DHT22;11067;48.788;9.208;2023-08-21T06:02:00;25.10;99.90
21811;DHT22;11067;48.788;9.208;2023-08-21T06:04:26;25.00;99.90
21811;DHT22;11067;48.788;9.208;2023-08-21T06:06:52;25.40;99.90
21811;DHT22;11067;48.788;9.208;2023-08-21T06:09:18;25.70;99.90
21811;DHT22;11067;48.788;9.208;2023-08-21T06:11:44;25.40;99.90
21811;DHT22;11067;48.788;9.208;2023-08-21T06:14:10;26.00;99.90
21811;DHT22;11067;48.788;9.208;2023-08-21T06:16:35;25.80;99.90
21811;DHT22;11067;48.788;9.208;2023-08-21T06:19:01;25.80;99.90
21811;DHT22;11067;48.788;9.208;2023-08-21T06:21:26;25.60;99.90
21811;DHT22;11067;48.788;9.208;2023-08-21T06:23:52;26.00;99.90
21811;DHT22;11067;48.788;9.208;2023-08-21T06:26:17;25.60;99.90
21811;DHT22;11067;48.788;9.208;2023-08-21T06:28:43;26.00;99.90
21811;DHT22;11067;48.788;9.208;2023-08-21T06:31:09;26.60;99.90
21811;DHT22;11067;48.788;9.208;2023-08-21T06:33:34;26.00;99.90
21811;DHT22;11067;48.788;9.208;2023-08-21T06:36:00;25.90;99.90
21811;DHT22;11067;48.788;9.208;2023-08-21T06:38:25;25.60;99.90
21811;DHT22;11067;48.788;9.208;2023-08-21T06:40:51;25.80;99.90
21811;DHT22;11067;48.788;9.208;2023-08-21T06:43:17;26.00;99.90
21811;DHT22;11067;48.788;9.208;2023-08-21T06:45:42;25.60;99.90
21811;DHT22;11067;48.788;9.208;2023-08-21T06:48:08;25.60;99.90
21811;DHT22;11067;48.788;9.208;2023-08-21T06:50:34;25.60;99.90
21811;DHT22;11067;48.788;9.208;2023-08-21T06:52:59;25.70;99.90
21811;DHT22;11067;48.788;9.208;2023-08-21T06:55:25;25.70;99.90
21811;DHT22;11067;48.788;9.208;2023-08-21T06:57:50;25.70;99.90
21811;DHT22;11067;48.788;9.208;2023-08-21T07:00:16;25.90;99.90
21811;DHT22;11067;48.788;9.208;2023-08-21T07:02:41;25.90;99.90
21811;DHT22;11067;48.788;9.208;2023-08-21T07:05:07;26.00;99.90
21811;DHT22;11067;48.788;9.208;2023-08-21T07:07:38;26.20;99.90
21811;DHT22;11067;48.788;9.208;2023-08-21T07:10:03;26.30;99.90
21811;DHT22;11067;48.788;9.208;2023-08-21T07:12:30;26.40;99.90
21811;DHT22;11067;48.788;9.208;2023-08-21T07:14:56;26.40;99.90
21811;DHT22;11067;48.788;9.208;2023-08-21T07:17:21;26.50;99.90
21811;DHT22;11067;48.788;9.208;2023-08-21T07:19:47;26.50;99.90
21811;DHT22;11067;48.788;9.208;2023-08-21T07:22:14;26.50;99.90
21811;DHT22;11067;48.788;9.208;2023-08-21T07:24:40;26.30;99.90
21811;DHT22;11067;48.788;9.208;2023-08-21T07:27:05;26.40;99.90
21811;DHT22;11067;48.788;9.208;2023-08-21T07:29:33;26.60;99.90
21811;DHT22;11067;48.788;9.208;2023-08-21T07:31:59;26.60;99.90
21811;DHT22;11067;48.788;9.208;2023-08-21T07:34:26;26.60;99.90
21811;DHT22;11067;48.788;9.208;2023-08-21T07:36:54;26.80;99.90
21811;DHT22;11067;48.788;9.208;2023-08-21T07:39:20;27.10;99.90
21811;DHT22;11067;48.788;9.208;2023-08-21T07:41:45;27.10;99.90
21811;DHT22;11067;48.788;9.208;2023-08-21T07:44:11;27.20;99.90
21811;DHT22;11067;48.788;9.208;2023-08-21T07:46:36;27.40;99.90
21811;DHT22;11067;48.788;9.208;2023-08-21T07:49:02;27.40;99.90
21811;DHT22;11067;48.788;9.208;2023-08-21T07:51:27;27.60;99.90
21811;DHT22;11067;48.788;9.208;2023-08-21T07:53:53;27.60;99.90
21811;DHT22;11067;48.788;9.208;2023-08-21T07:56:18;28.00;99.90
21811;DHT22;11067;48.788;9.208;2023-08-21T07:58:44;27.70;99.90
21811;DHT22;11067;48.788;9.208;2023-08-21T08:01:09;27.80;99.90
21811;DHT22;11067;48.788;9.208;2023-08-21T08:03:35;28.10;99.90
21811;DHT22;11067;48.788;9.208;2023-08-21T08:06:01;28.20;99.90
21811;DHT22;11067;48.788;9.208;2023-08-21T08:08:26;28.40;99.90
21811;DHT22;11067;48.788;9.208;2023-08-21T08:10:52;28.60;99.90
21811;DHT22;11067;48.788;9.208;2023-08-21T08:13:17;28.60;99.90
21811;DHT22;11067;48.788;9.208;2023-08-21T08:15:43;28.50;99.90
21811;DHT22;11067;48.788;9.208;2023-08-21T08:18:12;28.40;99.90
21811;DHT22;11067;48.788;9.208;2023-08-21T08:20:38;27.90;99.90
21811;DHT22;11067;48.788;9.208;2023-08-21T08:23:04;28.00;99.90
21811;DHT22;11067;48.788;9.208;2023-08-21T08:25:29;28.10;99.90
21811;DHT22;11067;48.788;9.208;2023-08-21T08:27:55;28.40;99.90
21811;DHT22;11067;48.788;9.208;2023-08-21T08:30:20;28.40;99.90
21811;DHT22;11067;48.788;9.208;2023-08-21T08:32:46;28.70;99.90
21811;DHT22;11067;48.788;9.208;2023-08-21T08:35:14;28.80;99.90
21811;DHT22;11067;48.788;9.208;2023-08-21T08:37:41;28.90;99.90
21811;DHT22;11067;48.788;9.208;2023-08-21T08:40:07;29.10;99.90
21811;DHT22;11067;48.788;9.208;2023-08-21T08:42:34;29.40;99.90
21811;DHT22;11067;48.788;9.208;2023-08-21T08:45:02;29.50;99.90
21811;DHT22;11067;48.788;9.208;2023-08-21T08:47:31;29.70;99.90
21811;DHT22;11067;48.788;9.208;2023-08-21T08:49:58;29.70;99.90
21811;DHT22;11067;48.788;9.208;2023-08-21T08:52:26;29.50;99.90
21811;DHT22;11067;48.788;9.208;2023-08-21T08:54:53;29.50;99.90
21811;DHT22;11067;48.788;9.208;2023-08-21T08:57:20;29.40;99.90
21811;DHT22;11067;48.788;9.208;2023-08-21T08:59:45;29.70;99.90
21811;DHT22;11067;48.788;9.208;2023-08-21T09:02:11;29.70;99.90
21811;DHT22;11067;48.788;9.208;2023-08-21T09:04:37;29.70;99.90
21811;DHT22;11067;48.788;9.208;2023-08-21T09:07:09;29.50;99.90
21811;DHT22;11067;48.788;9.208;2023-08-21T09:09:39;29.90;99.90
21811;DHT22;11067;48.788;9.208;2023-08-21T09:12:12;30.30;99.90
21811;DHT22;11067;48.788;9.208;2023-08-21T09:14:42;29.80;99.90
21811;DHT22;11067;48.788;9.208;2023-08-21T09:17:08;30.00;99.90
21811;DHT22;11067;48.788;9.208;2023-08-21T09:19:34;30.20;99.90
21811;DHT22;11067;48.788;9.208;2023-08-21T09:22:11;30.30;99.90
21811;DHT22;11067;48.788;9.208;2023-08-21T09:24:38;30.40;99.90
21811;DHT22;11067;48.788;9.208;2023-08-21T09:27:10;30.40;99.90
21811;DHT22;11067;48.788;9.208;2023-08-21T09:29:38;30.40;99.90
21811;DHT22;11067;48.788;9.208;2023-08-21T09:32:06;30.30;99.90
21811;DHT22;11067;48.788;9.208;2023-08-21T09:34:35;30.50;99.90
21811;DHT22;11067;48.788;9.208;2023-08-21T09:37:05;30.70;99.90
21811;DHT22;11067;48.788;9.208;2023-08-21T09:39:37;30.80;99.90
21811;DHT22;11067;48.788;9.208;2023-08-21T09:42:06;30.80;99.90
21811;DHT22;11067;48.788;9.208;2023-08-21T09:44:39;30.50;99.90
21811;DHT22;11067;48.788;9.208;2023-08-21T09:47:09;30.50;99.90
21811;DHT22;11067;48.788;9.208;2023-08-21T09:49:36;30.70;99.90
21811;DHT22;11067;48.788;9.208;2023-08-21T09:52:04;30.80;99.90
21811;DHT22;11067;48.788;9.208;2023-08-21T09:54:31;30.70;99.90
21811;DHT22;11067;48.788;9.208;2023-08-21T09:57:01;30.70;99.90
21811;DHT22;11067;48.788;9.208;2023-08-21T09:59:27;30.70;99.90
21811;DHT22;11067;48.788;9.208;2023-08-21T10:01:54;30.80;99.90
21811;DHT22;11067;48.788;9.208;2023-08-21T10:04:22;30.90;99.90
21811;DHT22;11067;48.788;9.208;2023-08-21T10:06:51;31.10;99.90
21811;DHT22;11067;48.788;9.208;2023-08-21T10:09:17;31.30;99.90
21811;DHT22;11067;48.788;9.208;2023-08-21T10:11:43;31.20;99.90
21811;DHT22;11067;48.788;9.208;2023-08-21T10:14:10;31.20;99.90
21811;DHT22;11067;48.788;9.208;2023-08-21T10:16:36;31.30;99.90
21811;DHT22;11067;48.788;9.208;2023-08-21T10:19:04;31.40;99.90
21811;DHT22;11067;48.788;9.208;2023-08-21T10:21:35;31.30;99.90
21811;DHT22;11067;48.788;9.208;2023-08-21T10:24:02;31.40;99.90
21811;DHT22;11067;48.788;9.208;2023-08-21T10:26:28;31.50;99.90
21811;DHT22;11067;48.788;9.208;2023-08-21T10:28:57;31.70;99.90
21811;DHT22;11067;48.788;9.208;2023-08-21T10:31:29;31.30;99.90
21811;DHT22;11067;48.788;9.208;2023-08-21T10:33:55;31.30;99.90
21811;DHT22;11067;48.788;9.208;2023-08-21T10:42:02;30.80;99.90
21811;DHT22;11067;48.788;9.208;2023-08-21T10:49:53;31.40;99.90
21811;DHT22;11067;48.788;9.208;2023-08-21T10:52:39;31.40;99.90
21811;DHT22;11067;48.788;9.208;2023-08-21T10:55:08;30.90;99.90
21811;DHT22;11067;48.788;9.208;2023-08-21T10:57:36;31.10;99.90
21811;DHT22;11067;48.788;9.208;2023-08-21T11:02:31;31.90;99.90
21811;DHT22;11067;48.788;9.208;2023-08-21T11:04:58;31.80;99.90
21811;DHT22;11067;48.788;9.208;2023-08-21T11:07:25;31.50;99.90
21811;DHT22;11067;48.788;9.208;2023-08-21T11:09:51;31.50;99.90
21811;DHT22;11067;48.788;9.208;2023-08-21T11:12:18;31.80;99.90
21811;DHT22;11067;48.788;9.208;2023-08-21T11:14:44;31.80;99.90
21811;DHT22;11067;48.788;9.208;2023-08-21T11:17:10;32.10;99.90
21811;DHT22;11067;48.788;9.208;2023-08-21T11:19:37;31.60;99.90
21811;DHT22;11067;48.788;9.208;2023-08-21T11:22:03;31.40;99.90
21811;DHT22;11067;48.788;9.208;2023-08-21T11:24:41;31.30;99.90
21811;DHT22;11067;48.788;9.208;2023-08-21T11:27:08;31.50;99.90
21811;DHT22;11067;48.788;9.208;2023-08-21T11:29:55;31.60;99.90
21811;DHT22;11067;48.788;9.208;2023-08-21T11:32:22;31.40;99.90
21811;DHT22;11067;48.788;9.208;2023-08-21T11:34:50;31.40;99.90
21811;DHT22;11067;48.788;9.208;2023-08-21T11:37:21;31.50;99.90
21811;DHT22;11067;48.788;9.208;2023-08-21T11:39:51;31.80;99.90
21811;DHT22;11067;48.788;9.208;2023-08-21T11:42:18;32.20;99.90
21811;DHT22;11067;48.788;9.208;2023-08-21T11:44:46;32.00;99.90
21811;DHT22;11067;48.788;9.208;2023-08-21T11:47:12;32.00;99.90
21811;DHT22;11067;48.788;9.208;2023-08-21T11:49:40;32.10;99.90
21811;DHT22;11067;48.788;9.208;2023-08-21T11:52:07;32.20;99.90
21811;DHT22;11067;48.788;9.208;2023-08-21T11:54:34;32.00;99.90
21811;DHT22;11067;48.788;9.208;2023-08-21T11:57:03;31.80;99.90
21811;DHT22;11067;48.788;9.208;2023-08-21T11:59:29;31.80;99.90
21811;DHT22;11067;48.788;9.208;2023-08-21T12:01:55;31.90;99.90
21811;DHT22;11067;48.788;9.208;2023-08-21T12:04:21;31.70;99.90
21811;DHT22;11067;48.788;9.208;2023-08-21T12:06:46;32.20;99.90
21811;DHT22;11067;48.788;9.208;2023-08-21T12:09:12;31.90;99.90
21811;DHT22;11067;48.788;9.208;2023-08-21T12:11:37;31.70;99.90
21811;DHT22;11067;48.788;9.208;2023-08-21T12:14:04;32.30;99.90
21811;DHT22;11067;48.788;9.208;2023-08-21T12:16:30;32.10;99.90
21811;DHT22;11067;48.788;9.208;2023-08-21T12:18:55;32.40;99.90
21811;DHT22;11067;48.788;9.208;2023-08-21T12:21:23;32.50;99.90
21811;DHT22;11067;48.788;9.208;2023-08-21T12:23:49;32.80;99.90
21811;DHT22;11067;48.788;9.208;2023-08-21T12:26:14;32.60;99.90
21811;DHT22;11067;48.788;9.208;2023-08-21T12:28:46;32.60;99.90
21811;DHT22;11067;48.788;9.208;2023-08-21T12:31:12;32.30;99.90
21811;DHT22;11067;48.788;9.208;2023-08-21T12:33:38;32.40;99.90
21811;DHT22;11067;48.788;9.208;2023-08-21T12:36:03;32.80;99.90
21811;DHT22;11067;48.788;9.208;2023-08-21T15:26:34;33.10;99.90
21811;DHT22;11067;48.788;9.208;2023-08-21T15:29:00;32.80;99.70
21811;DHT22;11067;48.788;9.208;2023-08-21T15:31:26;32.50;99.90
21811;DHT22;11067;48.788;9.208;2023-08-21T15:33:51;32.70;99.90
21811;DHT22;11067;48.788;9.208;2023-08-21T15:36:17;32.70;99.90
21811;DHT22;11067;48.788;9.208;2023-08-21T15:38:42;32.80;99.80
21811;DHT22;11067;48.788;9.208;2023-08-21T15:41:08;32.70;99.90
21811;DHT22;11067;48.788;9.208;2023-08-21T15:43:34;32.90;99.90
21811;DHT22;11067;48.788;9.208;2023-08-21T15:46:03;33.00;99.90
21811;DHT22;11067;48.788;9.208;2023-08-21T15:48:30;32.80;99.90
21811;DHT22;11067;48.788;9.208;2023-08-21T15:50:55;32.80;99.90
21811;DHT22;11067;48.788;9.208;2023-08-21T15:53:21;32.70;99.90
21811;DHT22;11067;48.788;9.208;2023-08-21T15:55:46;32.40;99.90
21811;DHT22;11067;48.788;9.208;2023-08-21T15:58:12;32.40;99.90
21811;DHT22;11067;48.788;9.208;2023-08-21T16:00:37;32.60;99.90
21811;DHT22;11067;48.788;9.208;2023-08-21T16:03:04;32.70;99.90
21811;DHT22;11067;48.788;9.208;2023-08-21T16:05:30;32.80;99.90
21811;DHT22;11067;48.788;9.208;2023-08-21T16:07:55;32.60;99.90
21811;DHT22;11067;48.788;9.208;2023-08-21T16:10:21;32.50;99.90
21811;DHT22;11067;48.788;9.208;2023-08-21T16:12:47;32.70;99.90
21811;DHT22;11067;48.788;9.208;2023-08-21T16:15:12;32.70;99.90
21811;DHT22;11067;48.788;9.208;2023-08-21T16:17:38;32.80;99.90
21811;DHT22;11067;48.788;9.208;2023-08-21T16:20:03;32.80;99.90
21811;DHT22;11067;48.788;9.208;2023-08-21T16:22:30;32.60;99.90
21811;DHT22;11067;48.788;9.208;2023-08-21T16:24:56;32.70;99.90
21811;DHT22;11067;48.788;9.208;2023-08-21T16:27:21;32.70;99.90
21811;DHT22;11067;48.788;9.208;2023-08-21T16:29:47;32.80;99.90
21811;DHT22;11067;48.788;9.208;2023-08-21T16:32:13;32.70;99.90
21811;DHT22;11067;48.788;9.208;2023-08-21T16:34:38;32.40;99.90
21811;DHT22;11067;48.788;9.208;2023-08-21T16:37:04;32.30;99.90
21811;DHT22;11067;48.788;9.208;2023-08-21T16:39:29;32.30;99.90
21811;DHT22;11067;48.788;9.208;2023-08-21T16:41:55;32.40;99.90
21811;DHT22;11067;48.788;9.208;2023-08-21T16:44:21;32.40;99.90
21811;DHT22;11067;48.788;9.208;2023-08-21T16:46:48;32.10;99.90
21811;DHT22;11067;48.788;9.208;2023-08-21T16:49:14;32.20;99.90
21811;DHT22;11067;48.788;9.208;2023-08-21T16:51:39;32.20;99.90
21811;DHT22;11067;48.788;9.208;2023-08-21T16:54:05;32.30;99.90
21811;DHT22;11067;48.788;9.208;2023-08-21T16:56:31;32.30;99.90
21811;DHT22;11067;48.788;9.208;2023-08-21T16:58:57;32.20;99.90
21811;DHT22;11067;48.788;9.208;2023-08-21T17:01:23;32.30;99.90
21811;DHT22;11067;48.788;9.208;2023-08-21T17:03:48;32.30;99.90
21811;DHT22;11067;48.788;9.208;2023-08-21T17:06:14;32.20;99.90
21811;DHT22;11067;48.788;9.208;2023-08-21T17:08:40;32.60;99.90
21811;DHT22;11067;48.788;9.208;2023-08-21T17:11:05;32.80;99.90
21811;DHT22;11067;48.788;9.208;2023-08-21T17:13:31;32.90;99.90
21811;DHT22;11067;48.788;9.208;2023-08-21T17:15:56;32.60;99.90
21811;DHT22;11067;48.788;9.208;2023-08-21T17:18:24;32.40;99.90
21811;DHT22;11067;48.788;9.208;2023-08-21T17:20:50;32.20;99.90
21811;DHT22;11067;48.788;9.208;2023-08-21T17:23:15;32.20;99.90
21811;DHT22;11067;48.788;9.208;2023-08-21T17:25:41;32.10;99.90
21811;DHT22;11067;48.788;9.208;2023-08-21T17:28:06;32.00;99.90
21811;DHT22;11067;48.788;9.208;2023-08-21T17:30:33;31.80;99.90
21811;DHT22;11067;48.788;9.208;2023-08-21T17:33:01;31.80;99.90
21811;DHT22;11067;48.788;9.208;2023-08-21T17:35:26;31.80;99.90
21811;DHT22;11067;48.788;9.208;2023-08-21T17:37:53;31.60;99.90
21811;DHT22;11067;48.788;9.208;2023-08-21T17:40:19;31.90;99.90
21811;DHT22;11067;48.788;9.208;2023-08-21T17:42:45;32.00;99.90
21811;DHT22;11067;48.788;9.208;2023-08-21T17:45:10;31.90;99.90
21811;DHT22;11067;48.788;9.208;2023-08-21T17:47:36;32.00;99.90
21811;DHT22;11067;48.788;9.208;2023-08-21T17:50:02;31.80;99.90
21811;DHT22;11067;48.788;9.208;2023-08-21T17:52:27;31.50;99.90
21811;DHT22;11067;48.788;9.208;2023-08-21T17:54:54;31.30;99.90
21811;DHT22;11067;48.788;9.208;2023-08-21T17:57:19;31.30;99.90
21811;DHT22;11067;48.788;9.208;2023-08-21T17:59:45;31.10;99.90
21811;DHT22;11067;48.788;9.208;2023-08-21T18:02:10;31.10;99.90
21811;DHT22;11067;48.788;9.208;2023-08-21T18:04:36;31.10;99.90
21811;DHT22;11067;48.788;9.208;2023-08-21T18:07:02;31.10;99.90
21811;DHT22;11067;48.788;9.208;2023-08-21T18:09:28;31.00;99.90
21811;DHT22;11067;48.788;9.208;2023-08-21T18:11:53;30.90;99.90
21811;DHT22;11067;48.788;9.208;2023-08-21T18:14:19;30.80;99.90
21811;DHT22;11067;48.788;9.208;2023-08-21T18:16:44;30.70;99.90
21811;DHT22;11067;48.788;9.208;2023-08-21T18:19:12;30.70;99.90
21811;DHT22;11067;48.788;9.208;2023-08-21T18:21:38;30.70;99.90
21811;DHT22;11067;48.788;9.208;2023-08-21T18:24:04;30.60;99.90
21811;DHT22;11067;48.788;9.208;2023-08-21T18:26:30;30.50;99.90
21811;DHT22;11067;48.788;9.208;2023-08-21T18:28:55;30.50;99.90
21811;DHT22;11067;48.788;9.208;2023-08-21T18:31:21;30.40;99.90